Time;durP1;ratioP1;P1;durP2;ratioP2;P2;SDS_P1;SDS_P2;PMS_P1;PMS_P2;Temp;Humidity;BMP_temperature;BMP_pressure;BME280_temperature;BME280_humidity;BME280_pressure;Samples;Min_cycle;Max_cycle;Signal;HPM_P1;HPM_P2
2021/12/30 00:01:05;;;;;;;26.02;8.95;;;8.80;99.90;;;;;;5065871;28;20088;-74
2021/12/30 00:03:30;;;;;;;29.35;10.20;;;8.90;99.90;;;;;;5066247;28;20032;-74
2021/12/30 00:05:56;;;;;;;24.92;9.48;;;8.90;99.90;;;;;;5065863;28;20021;-74
2021/12/30 00:08:22;;;;;;;27.95;10.27;;;8.90;99.90;;;;;;5065624;28;20036;-74
2021/12/30 00:10:49;;;;;;;26.77;10.30;;;9.00;99.90;;;;;;5065948;28;20040;-75
2021/12/30 00:13:15;;;;;;;23.45;8.82;;;9.00;99.90;;;;;;5048094;28;20024;-74
2021/12/30 00:15:40;;;;;;;30.52;9.05;;;8.90;99.90;;;;;;5065710;28;20025;-74
2021/12/30 00:18:07;;;;;;;19.02;7.63;;;9.00;99.90;;;;;;5066059;28;20060;-74
2021/12/30 00:20:33;;;;;;;28.50;8.43;;;9.00;99.90;;;;;;5065557;28;20409;-74
2021/12/30 00:23:04;;;;;;;18.33;7.93;;;9.00;99.90;;;;;;5065191;28;20036;-74
2021/12/30 00:25:38;;;;;;;21.98;6.95;;;9.00;99.90;;;;;;5065821;28;20036;-74
2021/12/30 00:28:15;;;;;;;23.40;8.43;;;9.00;99.90;;;;;;5065653;28;20017;-73
2021/12/30 00:30:44;;;;;;;24.75;8.10;;;9.00;99.90;;;;;;5065530;28;20037;-75
2021/12/30 00:33:11;;;;;;;18.33;6.95;;;9.00;99.90;;;;;;5065867;28;20021;-74
2021/12/30 00:35:37;;;;;;;14.85;6.10;;;9.00;99.90;;;;;;5065173;28;20027;-74
2021/12/30 00:38:04;;;;;;;60.25;8.82;;;9.00;99.90;;;;;;5065219;28;20103;-73
2021/12/30 00:40:30;;;;;;;18.75;8.07;;;9.00;99.90;;;;;;5065281;28;20032;-73
2021/12/30 00:42:56;;;;;;;14.10;5.78;;;9.00;99.90;;;;;;5047120;28;20029;-74
2021/12/30 00:45:22;;;;;;;21.92;6.57;;;9.00;99.90;;;;;;5065367;28;20032;-74
2021/12/30 00:47:48;;;;;;;31.27;7.95;;;9.00;99.90;;;;;;5065092;28;20032;-75
2021/12/30 00:50:13;;;;;;;16.08;5.45;;;9.00;99.90;;;;;;5065075;28;20029;-75
2021/12/30 00:52:40;;;;;;;20.25;7.15;;;9.00;99.90;;;;;;5065335;28;20029;-75
2021/12/30 00:55:06;;;;;;;20.73;5.22;;;9.00;99.90;;;;;;5064823;28;20400;-74
2021/12/30 00:57:32;;;;;;;20.95;5.88;;;9.00;99.90;;;;;;5065203;28;20033;-74
2021/12/30 00:59:58;;;;;;;31.73;7.28;;;8.90;99.90;;;;;;5047217;28;20469;-74
2021/12/30 01:02:23;;;;;;;18.33;5.22;;;8.90;99.90;;;;;;5064606;28;20032;-74
2021/12/30 01:04:49;;;;;;;16.17;5.43;;;8.90;99.90;;;;;;5047035;28;20033;-74
2021/12/30 01:07:15;;;;;;;14.77;5.18;;;8.90;99.90;;;;;;5064851;28;20033;-75
2021/12/30 01:09:41;;;;;;;30.45;5.00;;;8.90;99.90;;;;;;5064627;28;20029;-75
2021/12/30 01:12:07;;;;;;;20.15;4.20;;;8.90;99.90;;;;;;5047332;28;20068;-74
2021/12/30 01:14:35;;;;;;;12.27;3.78;;;8.80;99.90;;;;;;5064730;28;20036;-74
2021/12/30 01:17:14;;;;;;;14.55;4.10;;;8.80;99.90;;;;;;5046234;28;20040;-74
2021/12/30 01:19:44;;;;;;;13.80;4.63;;;8.80;99.90;;;;;;5064233;28;20441;-76
2021/12/30 01:22:13;;;;;;;17.92;3.78;;;8.80;99.90;;;;;;5046088;28;20045;-76
2021/12/30 01:24:39;;;;;;;9.80;3.47;;;8.80;99.90;;;;;;5064759;28;20021;-74
2021/12/30 01:27:04;;;;;;;31.88;5.15;;;8.70;99.90;;;;;;5046876;28;20021;-74
2021/12/30 01:29:30;;;;;;;15.43;4.65;;;8.70;99.90;;;;;;5046317;28;20029;-74
2021/12/30 01:31:57;;;;;;;18.88;4.28;;;8.70;99.90;;;;;;5064581;28;20044;-74
2021/12/30 01:34:22;;;;;;;14.38;4.00;;;8.70;99.90;;;;;;5064472;28;20032;-74
2021/12/30 01:36:48;;;;;;;8.48;3.92;;;8.70;99.90;;;;;;5064065;28;20052;-74
2021/12/30 01:39:17;;;;;;;11.85;3.58;;;8.70;99.90;;;;;;5064627;28;20017;-75
2021/12/30 01:41:44;;;;;;;10.82;3.25;;;8.60;99.90;;;;;;5064775;28;20033;-75
2021/12/30 01:44:10;;;;;;;23.88;4.50;;;8.60;99.90;;;;;;5064478;28;20032;-75
2021/12/30 01:46:42;;;;;;;23.55;4.22;;;8.70;99.90;;;;;;5065067;28;20064;-75
2021/12/30 01:49:12;;;;;;;15.88;4.00;;;8.70;99.90;;;;;;5065064;28;20021;-75
2021/12/30 01:51:38;;;;;;;15.93;3.90;;;8.70;99.90;;;;;;5066548;28;20449;-75
2021/12/30 01:54:05;;;;;;;7.90;2.92;;;8.70;99.90;;;;;;5050452;28;20500;-74
2021/12/30 01:56:31;;;;;;;12.43;4.32;;;8.60;99.90;;;;;;5068574;28;20794;-73
2021/12/30 01:58:57;;;;;;;13.73;4.40;;;8.70;99.90;;;;;;5068175;28;20032;-74
2021/12/30 02:01:23;;;;;;;7.78;2.53;;;8.70;99.90;;;;;;5068409;28;20075;-73
2021/12/30 02:03:49;;;;;;;12.40;4.38;;;8.60;99.90;;;;;;5050320;28;20063;-75
2021/12/30 02:06:14;;;;;;;16.23;4.55;;;8.60;99.90;;;;;;5068131;28;20025;-75
2021/12/30 02:08:40;;;;;;;17.98;3.17;;;8.60;99.90;;;;;;5068420;28;20029;-75
2021/12/30 02:11:07;;;;;;;15.35;3.42;;;8.60;99.90;;;;;;5067972;28;20035;-75
2021/12/30 02:13:32;;;;;;;14.85;3.33;;;8.60;99.90;;;;;;5067704;28;20033;-76
2021/12/30 02:16:01;;;;;;;7.10;2.78;;;8.60;99.90;;;;;;5050199;28;20527;-75
2021/12/30 02:18:28;;;;;;;21.17;5.15;;;8.60;99.90;;;;;;5050033;28;20028;-76
2021/12/30 02:20:59;;;;;;;11.25;4.28;;;8.60;99.90;;;;;;5067787;28;20063;-75
2021/12/30 02:23:33;;;;;;;8.93;3.42;;;8.50;99.90;;;;;;5067912;28;20036;-75
2021/12/30 02:26:03;;;;;;;18.08;4.05;;;8.50;99.90;;;;;;5049866;28;20033;-75
2021/12/30 02:28:32;;;;;;;16.02;2.92;;;8.50;99.90;;;;;;5049461;28;20040;-74
2021/12/30 02:31:00;;;;;;;25.30;3.25;;;8.60;99.90;;;;;;5049788;28;20036;-75
2021/12/30 02:33:26;;;;;;;24.67;3.20;;;8.50;99.90;;;;;;5049507;28;20033;-74
2021/12/30 02:35:53;;;;;;;15.68;3.05;;;8.60;99.90;;;;;;5067312;28;20028;-75
2021/12/30 02:38:20;;;;;;;13.38;3.78;;;8.60;99.90;;;;;;5045936;28;20049;-75
2021/12/30 02:40:49;;;;;;;17.27;5.38;;;8.50;99.90;;;;;;5045898;28;20049;-75
2021/12/30 02:43:21;;;;;;;32.25;4.30;;;8.60;99.90;;;;;;5047765;28;20030;-75
2021/12/30 02:45:47;;;;;;;13.35;5.03;;;8.60;99.90;;;;;;5047668;28;20461;-75
2021/12/30 02:48:22;;;;;;;8.93;3.05;;;8.60;99.90;;;;;;5047348;28;20028;-74
2021/12/30 02:50:51;;;;;;;20.40;5.40;;;8.50;99.90;;;;;;5047546;28;20057;-75
2021/12/30 02:53:17;;;;;;;7.68;4.38;;;8.60;99.90;;;;;;5045928;28;20048;-75
2021/12/30 02:55:44;;;;;;;15.82;4.68;;;8.60;99.90;;;;;;5047138;28;20099;-75
2021/12/30 02:58:11;;;;;;;10.50;3.72;;;8.50;99.90;;;;;;5047661;28;20044;-75
2021/12/30 03:00:38;;;;;;;15.57;5.13;;;8.50;99.90;;;;;;5047157;28;20036;-74
2021/12/30 03:03:04;;;;;;;19.13;3.97;;;8.50;99.90;;;;;;5047176;28;20030;-74
2021/12/30 03:05:30;;;;;;;22.65;4.60;;;8.50;99.90;;;;;;5047501;28;20367;-74
2021/12/30 03:07:56;;;;;;;32.65;4.70;;;8.50;99.90;;;;;;5046890;28;20029;-75
2021/12/30 03:10:25;;;;;;;16.27;4.18;;;8.50;99.90;;;;;;5047049;28;20029;-74
2021/12/30 03:12:55;;;;;;;8.70;4.22;;;8.60;99.90;;;;;;5047203;28;20025;-75
2021/12/30 03:15:22;;;;;;;16.17;4.07;;;8.50;99.90;;;;;;5046891;28;20100;-75
2021/12/30 03:17:47;;;;;;;17.98;4.13;;;8.50;99.90;;;;;;5046996;28;20029;-75
2021/12/30 03:20:13;;;;;;;22.40;5.07;;;8.40;99.90;;;;;;5047378;28;20417;-75
2021/12/30 03:22:41;;;;;;;10.57;4.05;;;8.40;99.90;;;;;;5046643;28;20758;-76
2021/12/30 03:25:09;;;;;;;19.35;4.85;;;8.40;99.90;;;;;;5047432;28;20042;-73
2021/12/30 03:27:35;;;;;;;23.20;4.50;;;8.40;99.90;;;;;;5046961;28;20086;-74
2021/12/30 03:30:03;;;;;;;19.42;4.45;;;8.40;99.90;;;;;;5046241;28;20030;-74
2021/12/30 03:32:28;;;;;;;17.50;5.13;;;8.40;99.90;;;;;;5046835;28;20036;-74
2021/12/30 03:34:54;;;;;;;13.88;4.55;;;8.30;99.90;;;;;;5046733;28;20466;-74
2021/12/30 03:37:20;;;;;;;23.73;5.40;;;8.30;99.90;;;;;;5053454;28;20049;-74
2021/12/30 03:39:47;;;;;;;16.38;5.03;;;8.30;99.90;;;;;;5048826;28;20389;-76
2021/12/30 03:42:13;;;;;;;8.95;3.95;;;8.30;99.90;;;;;;5066251;28;20508;-74
2021/12/30 03:44:39;;;;;;;18.85;5.70;;;8.20;99.90;;;;;;5066600;28;20025;-74
2021/12/30 03:47:06;;;;;;;25.30;6.18;;;8.20;99.90;;;;;;5066607;28;20021;-73
2021/12/30 03:49:32;;;;;;;23.15;5.53;;;8.20;99.90;;;;;;5048432;28;20100;-74
2021/12/30 03:51:58;;;;;;;27.13;5.40;;;8.20;99.90;;;;;;5066356;28;20024;-74
2021/12/30 03:54:24;;;;;;;23.63;5.20;;;8.20;99.90;;;;;;5066162;28;20389;-74
2021/12/30 03:56:49;;;;;;;27.15;4.70;;;8.20;99.90;;;;;;5065879;28;20040;-74
2021/12/30 03:59:15;;;;;;;34.28;5.18;;;8.20;99.90;;;;;;5066179;28;20112;-76
2021/12/30 04:01:41;;;;;;;22.10;3.97;;;8.30;99.90;;;;;;5048431;28;20098;-75
2021/12/30 04:04:07;;;;;;;22.13;5.28;;;8.30;99.90;;;;;;5065875;28;20021;-74
2021/12/30 04:06:33;;;;;;;47.47;5.50;;;8.30;99.90;;;;;;5065249;28;20028;-74
2021/12/30 04:08:59;;;;;;;16.13;3.70;;;8.30;99.90;;;;;;5066246;28;20029;-74
2021/12/30 04:11:30;;;;;;;20.58;4.03;;;8.30;99.90;;;;;;5065485;28;20048;-74
2021/12/30 04:13:56;;;;;;;22.00;4.10;;;8.30;99.90;;;;;;5065492;28;20052;-74
2021/12/30 04:16:21;;;;;;;29.23;6.03;;;8.30;99.90;;;;;;5047700;28;20029;-74
2021/12/30 04:18:48;;;;;;;38.20;6.85;;;8.30;99.90;;;;;;5065520;28;20029;-76
2021/12/30 04:21:19;;;;;;;51.53;7.13;;;8.30;99.90;;;;;;5047904;28;20041;-75
2021/12/30 04:23:45;;;;;;;19.38;2.58;;;8.30;99.90;;;;;;5047734;28;20060;-75
2021/12/30 04:26:11;;;;;;;9.68;3.15;;;8.30;99.90;;;;;;5065573;28;20033;-75
2021/12/30 04:28:37;;;;;;;24.85;5.45;;;8.30;99.90;;;;;;5065693;28;20033;-74
2021/12/30 04:31:03;;;;;;;17.30;3.40;;;8.30;99.90;;;;;;5047667;28;20408;-74
2021/12/30 04:33:29;;;;;;;33.92;4.80;;;8.30;99.90;;;;;;5047350;28;20037;-74
2021/12/30 04:35:56;;;;;;;16.60;3.75;;;8.30;99.90;;;;;;5065470;28;20051;-74
2021/12/30 04:38:24;;;;;;;15.75;4.10;;;8.30;99.90;;;;;;5043588;28;20057;-74
2021/12/30 04:40:49;;;;;;;22.20;3.38;;;8.30;99.90;;;;;;5044131;28;20124;-75
2021/12/30 04:43:15;;;;;;;37.47;4.72;;;8.30;99.90;;;;;;5045550;28;20025;-75
2021/12/30 04:45:42;;;;;;;15.52;4.60;;;8.30;99.90;;;;;;5043937;28;20025;-75
2021/12/30 04:48:08;;;;;;;17.35;3.15;;;8.30;99.90;;;;;;5045518;28;20481;-74
2021/12/30 04:50:34;;;;;;;21.50;3.88;;;8.30;99.90;;;;;;5045393;28;20029;-74
2021/12/30 04:52:59;;;;;;;13.02;3.15;;;8.30;99.90;;;;;;5042980;28;20029;-74
2021/12/30 04:55:25;;;;;;;17.58;3.08;;;8.40;99.90;;;;;;5045148;28;20025;-74
2021/12/30 04:57:51;;;;;;;28.67;5.22;;;8.40;99.90;;;;;;5043547;28;20025;-74
2021/12/30 05:00:16;;;;;;;16.67;4.50;;;8.40;99.90;;;;;;5043466;28;20032;-73
2021/12/30 05:03:07;;;;;;;25.08;5.30;;;8.40;99.90;;;;;;5043691;28;20512;-74
2021/12/30 05:05:31;;;;;;;36.58;6.20;;;8.50;99.90;;;;;;5045065;28;20040;-74
2021/12/30 05:07:57;;;;;;;9.38;4.07;;;8.50;99.90;;;;;;5044478;28;20034;-74
2021/12/30 05:10:22;;;;;;;21.20;4.88;;;8.50;99.90;;;;;;5045067;28;20380;-74
2021/12/30 05:12:49;;;;;;;16.52;3.15;;;8.60;99.90;;;;;;5044881;28;20030;-74
2021/12/30 05:15:15;;;;;;;17.15;4.60;;;8.60;99.90;;;;;;5044726;28;20036;-73
2021/12/30 05:17:42;;;;;;;38.25;5.35;;;8.60;99.90;;;;;;5045344;28;20026;-75
2021/12/30 05:20:08;;;;;;;21.65;4.03;;;8.60;99.90;;;;;;5045051;28;20028;-74
2021/12/30 05:22:34;;;;;;;36.97;5.78;;;8.70;99.90;;;;;;5044336;28;20041;-74
2021/12/30 05:25:00;;;;;;;28.08;4.70;;;8.70;99.90;;;;;;5044332;28;20099;-74
2021/12/30 05:27:26;;;;;;;31.33;6.55;;;8.70;99.90;;;;;;5043054;28;20061;-74
2021/12/30 05:29:52;;;;;;;18.40;5.40;;;8.70;99.90;;;;;;5044384;28;20033;-74
2021/12/30 05:32:18;;;;;;;24.60;5.70;;;8.70;99.90;;;;;;5043333;28;20537;-74
2021/12/30 05:34:43;;;;;;;24.92;5.47;;;8.80;99.90;;;;;;5043456;28;20096;-76
2021/12/30 05:37:10;;;;;;;28.63;5.75;;;8.80;99.90;;;;;;5049669;28;20052;-75
2021/12/30 05:39:40;;;;;;;38.85;6.88;;;8.80;99.90;;;;;;5046795;28;20381;-74
2021/12/30 05:42:06;;;;;;;15.25;5.95;;;8.80;99.90;;;;;;5064377;28;20079;-74
2021/12/30 05:44:31;;;;;;;35.25;5.80;;;8.80;99.90;;;;;;5064618;28;20025;-74
2021/12/30 05:46:57;;;;;;;33.47;6.47;;;8.90;99.90;;;;;;5064670;28;20362;-74
2021/12/30 05:49:22;;;;;;;25.15;6.25;;;8.90;99.90;;;;;;5063938;28;20033;-75
2021/12/30 05:51:48;;;;;;;33.10;7.32;;;8.90;99.90;;;;;;5064218;28;20485;-73
2021/12/30 05:54:14;;;;;;;41.80;7.10;;;8.90;99.90;;;;;;5046365;28;20048;-75
2021/12/30 05:56:39;;;;;;;38.63;6.10;;;8.90;99.90;;;;;;5064335;28;20028;-74
2021/12/30 05:59:05;;;;;;;20.05;5.75;;;8.90;99.90;;;;;;5064528;28;20093;-74
2021/12/30 06:01:30;;;;;;;19.05;6.40;;;9.00;99.90;;;;;;5063435;28;20044;-74
2021/12/30 06:03:56;;;;;;;46.03;7.93;;;9.00;99.90;;;;;;5063633;28;20033;-74
2021/12/30 06:06:23;;;;;;;22.15;5.40;;;9.00;99.90;;;;;;5062977;28;20021;-74
2021/12/30 06:08:50;;;;;;;47.78;8.50;;;9.00;99.90;;;;;;5062472;28;20055;-74
2021/12/30 06:11:16;;;;;;;25.05;6.88;;;9.00;99.90;;;;;;5063974;28;20028;-74
2021/12/30 06:13:42;;;;;;;26.90;7.00;;;9.10;99.90;;;;;;5064457;28;20029;-73
2021/12/30 06:16:08;;;;;;;41.20;8.25;;;9.10;99.90;;;;;;5064464;28;20548;-73
2021/12/30 06:18:33;;;;;;;22.92;5.75;;;9.10;99.90;;;;;;5061980;28;20033;-74
2021/12/30 06:20:59;;;;;;;30.55;5.57;;;9.10;99.90;;;;;;5062333;28;20049;-74
2021/12/30 06:23:25;;;;;;;28.30;7.93;;;9.10;99.90;;;;;;5064010;28;20017;-75
2021/12/30 06:25:50;;;;;;;23.58;7.72;;;9.10;99.90;;;;;;5063455;28;20021;-75
2021/12/30 06:28:16;;;;;;;28.02;7.43;;;9.10;99.90;;;;;;5064143;28;20039;-76
2021/12/30 06:30:41;;;;;;;38.55;8.80;;;9.20;99.90;;;;;;5063988;28;20025;-77
2021/12/30 06:33:07;;;;;;;23.42;6.28;;;9.20;99.90;;;;;;5063843;28;20492;-78
2021/12/30 06:35:34;;;;;;;33.83;7.57;;;9.20;99.90;;;;;;5046062;28;20021;-77
2021/12/30 06:38:01;;;;;;;25.77;7.25;;;9.20;99.90;;;;;;5066321;28;20060;-77
2021/12/30 06:40:27;;;;;;;21.17;7.60;;;9.20;99.90;;;;;;5067218;28;20025;-76
2021/12/30 06:42:52;;;;;;;28.15;8.38;;;9.20;99.90;;;;;;5049916;28;20127;-76
2021/12/30 06:45:18;;;;;;;38.55;8.38;;;9.30;99.90;;;;;;5049614;28;20392;-76
2021/12/30 06:47:45;;;;;;;38.17;8.85;;;9.30;99.90;;;;;;5067604;28;20093;-75
2021/12/30 06:50:13;;;;;;;34.80;7.00;;;9.30;99.90;;;;;;5067764;28;20108;-76
2021/12/30 06:52:40;;;;;;;13.05;6.65;;;9.30;99.90;;;;;;5060989;28;20017;-75
2021/12/30 06:55:08;;;;;;;48.88;8.30;;;9.40;99.90;;;;;;5067011;28;20025;-77
2021/12/30 06:57:34;;;;;;;39.60;8.48;;;9.40;99.90;;;;;;5067339;28;20032;-75
2021/12/30 06:59:59;;;;;;;19.98;7.47;;;9.40;99.90;;;;;;5048588;28;20044;-76
2021/12/30 07:02:25;;;;;;;17.25;6.50;;;9.60;99.90;;;;;;5067004;28;20033;-75
2021/12/30 07:04:51;;;;;;;29.73;8.43;;;9.50;99.90;;;;;;5067185;28;20046;-76
2021/12/30 07:07:17;;;;;;;29.08;8.32;;;9.40;99.90;;;;;;5066881;28;20025;-76
2021/12/30 07:09:42;;;;;;;31.27;9.02;;;9.50;99.90;;;;;;5067075;28;20029;-74
2021/12/30 07:12:08;;;;;;;19.15;6.97;;;9.50;99.90;;;;;;5049459;28;20816;-75
2021/12/30 07:14:34;;;;;;;45.50;9.52;;;9.60;99.90;;;;;;5064922;28;20025;-77
2021/12/30 07:16:59;;;;;;;32.20;7.22;;;9.50;99.90;;;;;;5066730;28;20037;-76
2021/12/30 07:19:25;;;;;;;48.03;8.57;;;9.50;99.90;;;;;;5065411;28;20032;-77
2021/12/30 07:21:51;;;;;;;27.80;8.57;;;9.60;99.90;;;;;;5066190;28;20377;-76
2021/12/30 07:24:20;;;;;;;32.95;7.78;;;9.50;99.90;;;;;;5048568;28;20030;-75
2021/12/30 07:26:47;;;;;;;40.60;8.80;;;9.60;99.90;;;;;;5048311;28;20424;-76
2021/12/30 07:29:13;;;;;;;41.13;9.25;;;9.60;99.90;;;;;;5064724;28;20021;-75
2021/12/30 07:31:38;;;;;;;24.17;8.60;;;9.60;99.90;;;;;;5048981;28;20037;-75
2021/12/30 07:34:04;;;;;;;31.90;8.30;;;9.60;99.90;;;;;;5065732;28;20723;-78
2021/12/30 07:36:29;;;;;;;19.38;7.10;;;9.70;99.90;;;;;;5066038;28;20049;-75
2021/12/30 07:38:55;;;;;;;28.98;8.25;;;9.60;99.90;;;;;;5066719;28;20036;-74
2021/12/30 07:41:21;;;;;;;16.58;7.32;;;9.70;99.90;;;;;;5066324;28;20037;-75
2021/12/30 07:43:47;;;;;;;33.72;6.80;;;9.70;99.90;;;;;;5065979;28;20060;-76
2021/12/30 07:46:12;;;;;;;35.15;10.13;;;9.70;99.90;;;;;;5048066;28;20037;-77
2021/12/30 07:48:39;;;;;;;23.05;6.47;;;9.70;99.90;;;;;;5047626;28;20033;-74
2021/12/30 07:51:08;;;;;;;30.75;8.02;;;9.70;99.90;;;;;;5048190;28;20025;-77
2021/12/30 07:53:34;;;;;;;23.02;7.72;;;9.70;99.90;;;;;;5066615;28;20082;-76
2021/12/30 07:56:02;;;;;;;20.35;6.70;;;9.80;99.90;;;;;;5048112;28;20120;-75
2021/12/30 07:58:28;;;;;;;16.52;7.45;;;9.80;99.90;;;;;;5047320;28;20071;-75
2021/12/30 08:00:53;;;;;;;27.83;7.45;;;9.80;99.90;;;;;;5065643;28;20048;-74
2021/12/30 08:03:19;;;;;;;31.10;8.48;;;9.80;99.90;;;;;;5065725;28;20021;-76
2021/12/30 08:05:45;;;;;;;35.78;7.47;;;9.80;99.90;;;;;;5066075;28;20029;-75
2021/12/30 08:08:11;;;;;;;28.80;9.43;;;9.80;99.90;;;;;;5047942;28;20496;-77
2021/12/30 08:10:37;;;;;;;29.10;8.48;;;9.80;99.90;;;;;;5065869;28;20033;-74
2021/12/30 08:13:03;;;;;;;33.40;7.55;;;9.90;99.90;;;;;;5048047;28;20029;-76
2021/12/30 08:15:29;;;;;;;26.10;7.30;;;9.90;99.90;;;;;;5066012;28;20078;-74
2021/12/30 08:17:55;;;;;;;34.25;9.48;;;9.90;99.90;;;;;;5065433;28;20036;-75
2021/12/30 08:20:22;;;;;;;44.05;11.88;;;10.00;99.90;;;;;;5064615;28;20084;-75
2021/12/30 08:22:50;;;;;;;25.05;9.80;;;10.10;99.90;;;;;;5047404;28;20037;-75
2021/12/30 08:25:16;;;;;;;30.13;9.52;;;10.00;99.90;;;;;;5065567;28;20071;-75
2021/12/30 08:27:42;;;;;;;21.73;7.90;;;10.00;99.90;;;;;;5047616;28;20089;-76
2021/12/30 08:30:11;;;;;;;25.33;8.95;;;10.00;99.90;;;;;;5065823;28;20028;-76
2021/12/30 08:32:41;;;;;;;35.72;8.95;;;10.10;99.90;;;;;;5065379;28;20021;-75
2021/12/30 08:35:09;;;;;;;23.80;8.82;;;10.10;99.90;;;;;;5065761;28;20029;-74
2021/12/30 08:37:35;;;;;;;22.55;8.90;;;10.10;99.90;;;;;;5064096;28;20045;-75
2021/12/30 08:40:03;;;;;;;21.23;8.75;;;10.20;99.90;;;;;;5046854;28;20142;-75
2021/12/30 08:42:29;;;;;;;33.92;9.95;;;10.20;99.90;;;;;;5046867;28;20421;-77
2021/12/30 08:44:57;;;;;;;32.38;9.95;;;10.20;99.90;;;;;;5061781;28;20091;-77
2021/12/30 08:47:24;;;;;;;37.17;8.60;;;10.20;99.90;;;;;;5045181;28;20028;-77
2021/12/30 08:49:50;;;;;;;32.65;10.77;;;10.30;99.90;;;;;;5045858;28;20043;-76
2021/12/30 08:52:19;;;;;;;26.05;9.52;;;10.30;99.90;;;;;;5064713;28;20029;-78
2021/12/30 08:54:45;;;;;;;34.33;8.52;;;10.30;99.90;;;;;;5046983;28;20025;-79
2021/12/30 08:57:12;;;;;;;35.17;9.85;;;10.30;99.90;;;;;;5046801;28;20040;-79
2021/12/30 08:59:37;;;;;;;34.63;7.65;;;10.40;99.90;;;;;;5046508;28;20124;-78
2021/12/30 09:02:04;;;;;;;21.98;8.55;;;10.40;99.90;;;;;;5046900;28;20036;-80
2021/12/30 09:04:30;;;;;;;39.60;8.93;;;10.50;99.90;;;;;;5063751;28;20029;-80
2021/12/30 09:06:56;;;;;;;23.42;7.78;;;10.50;99.90;;;;;;5045951;28;20439;-77
2021/12/30 09:09:22;;;;;;;21.50;7.50;;;10.40;99.90;;;;;;5061380;28;20040;-80
2021/12/30 09:11:51;;;;;;;19.23;7.97;;;10.50;99.90;;;;;;5046953;28;20032;-78
2021/12/30 09:14:17;;;;;;;23.92;7.68;;;10.50;99.90;;;;;;5061465;28;20047;-78
2021/12/30 09:16:43;;;;;;;25.60;7.40;;;10.60;99.90;;;;;;5046450;28;20111;-76
2021/12/30 09:19:10;;;;;;;39.05;8.27;;;10.60;99.90;;;;;;5064131;28;20020;-79
2021/12/30 09:21:37;;;;;;;26.77;6.60;;;10.70;99.90;;;;;;5045872;28;20062;-77
2021/12/30 09:24:03;;;;;;;21.60;6.63;;;10.70;99.90;;;;;;5046464;28;20032;-78
2021/12/30 09:26:29;;;;;;;20.60;7.20;;;10.70;99.90;;;;;;5045508;28;20021;-78
2021/12/30 09:28:54;;;;;;;25.27;6.85;;;10.70;99.90;;;;;;5064151;28;20051;-78
2021/12/30 09:31:20;;;;;;;18.05;6.55;;;10.80;99.90;;;;;;5046057;28;20024;-75
2021/12/30 09:33:47;;;;;;;24.17;7.43;;;10.90;99.90;;;;;;5039121;28;20481;-77
2021/12/30 09:36:13;;;;;;;27.73;7.32;;;10.80;99.90;;;;;;5056607;28;20017;-79
2021/12/30 09:38:38;;;;;;;18.33;7.35;;;10.80;99.90;;;;;;5064705;28;20059;-78
2021/12/30 09:41:04;;;;;;;28.33;9.60;;;10.90;99.90;;;;;;5046457;28;20033;-75
2021/12/30 09:43:30;;;;;;;75.97;25.58;;;10.90;99.90;;;;;;5064339;28;20147;-75
2021/12/30 09:45:55;;;;;;;20.38;7.18;;;10.90;99.90;;;;;;5064408;28;20029;-76
2021/12/30 09:48:21;;;;;;;28.45;8.35;;;10.90;99.90;;;;;;5064255;28;20033;-78
2021/12/30 09:50:50;;;;;;;20.77;7.75;;;11.00;99.90;;;;;;5044836;28;20032;-76
2021/12/30 09:53:21;;;;;;;22.63;8.55;;;11.00;99.90;;;;;;5057485;28;20035;-78
2021/12/30 09:55:47;;;;;;;12.38;5.90;;;11.00;99.90;;;;;;5049650;28;20072;-78
2021/12/30 09:58:14;;;;;;;20.42;8.63;;;11.10;99.90;;;;;;5031837;28;20025;-77
2021/12/30 10:00:40;;;;;;;19.42;7.00;;;11.10;99.90;;;;;;5060039;28;20496;-78
2021/12/30 10:03:06;;;;;;;25.27;7.00;;;11.10;99.90;;;;;;5042970;28;20033;-76
2021/12/30 10:05:35;;;;;;;24.85;7.18;;;11.10;99.90;;;;;;5063726;28;20037;-76
2021/12/30 10:08:24;;;;;;;13.95;5.70;;;11.10;99.90;;;;;;5045876;28;20029;-75
2021/12/30 10:10:57;;;;;;;18.70;6.45;;;11.20;99.90;;;;;;5059395;28;20033;-76
2021/12/30 10:13:30;;;;;;;11.90;5.22;;;11.20;99.90;;;;;;5067740;28;20051;-74
2021/12/30 10:16:14;;;;;;;11.50;4.93;;;11.20;99.90;;;;;;5067226;28;20021;-78
2021/12/30 10:18:52;;;;;;;14.25;5.15;;;11.40;99.90;;;;;;5049809;28;20025;-76
2021/12/30 10:21:20;;;;;;;9.65;4.80;;;11.30;99.90;;;;;;5046628;28;20052;-76
2021/12/30 10:23:52;;;;;;;12.50;4.45;;;11.30;99.90;;;;;;5042911;28;20037;-77
2021/12/30 10:26:18;;;;;;;10.30;5.28;;;11.30;99.90;;;;;;5065328;28;20025;-77
2021/12/30 10:28:47;;;;;;;9.07;4.15;;;11.40;99.90;;;;;;5067431;28;20025;-78
2021/12/30 10:31:13;;;;;;;10.30;4.38;;;11.40;99.90;;;;;;5066932;28;20029;-78
2021/12/30 10:34:04;;;;;;;6.05;2.67;;;11.40;99.90;;;;;;5049859;28;20025;-77
2021/12/30 10:36:41;;;;;;;15.98;3.53;;;11.50;99.90;;;;;;5066546;28;20067;-77
2021/12/30 10:39:27;;;;;;;8.98;3.38;;;11.50;99.90;;;;;;5020163;28;20405;-76
2021/12/30 10:42:06;;;;;;;5.28;2.13;;;11.60;99.90;;;;;;5026846;28;20106;-76
2021/12/30 10:44:53;;;;;;;3.58;2.65;;;11.60;99.90;;;;;;5007152;28;20505;-78
2021/12/30 10:47:25;;;;;;;4.50;2.25;;;11.60;99.90;;;;;;5007517;28;20057;-77
2021/12/30 10:50:03;;;;;;;3.83;1.70;;;11.60;99.90;;;;;;5006358;28;20030;-74
2021/12/30 10:52:30;;;;;;;6.03;1.95;;;11.60;99.90;;;;;;5007326;28;20040;-78
2021/12/30 10:54:57;;;;;;;1.42;1.00;;;11.70;99.90;;;;;;5007570;28;20027;-75
2021/12/30 10:57:28;;;;;;;3.13;1.55;;;11.70;99.90;;;;;;5007619;28;20030;-74
2021/12/30 10:59:54;;;;;;;2.90;1.73;;;11.70;99.90;;;;;;5019524;28;20026;-75
2021/12/30 11:02:22;;;;;;;11.05;2.72;;;11.70;99.90;;;;;;5017037;28;20045;-78
2021/12/30 11:04:54;;;;;;;4.78;1.92;;;11.80;99.90;;;;;;5023803;28;20028;-76
2021/12/30 11:07:46;;;;;;;4.03;1.85;;;11.80;99.90;;;;;;5021623;28;20038;-75
2021/12/30 11:10:20;;;;;;;2.80;1.58;;;11.80;99.90;;;;;;5007419;28;20082;-77
2021/12/30 11:12:47;;;;;;;5.82;2.63;;;11.80;99.90;;;;;;5005191;28;20035;-75
2021/12/30 11:15:27;;;;;;;2.75;1.55;;;11.90;99.90;;;;;;5005161;28;20037;-78
2021/12/30 11:18:16;;;;;;;3.03;1.73;;;11.90;99.90;;;;;;5011362;28;20029;-76
2021/12/30 11:20:49;;;;;;;12.02;2.05;;;11.90;99.90;;;;;;5025144;28;20034;-78
2021/12/30 11:23:18;;;;;;;2.95;1.80;;;11.90;99.90;;;;;;5003616;28;20093;-78
2021/12/30 11:25:44;;;;;;;5.85;1.77;;;11.90;99.90;;;;;;5020804;28;20060;-75
2021/12/30 11:28:11;;;;;;;2.42;1.58;;;11.90;99.90;;;;;;5025250;28;20032;-74
2021/12/30 11:30:37;;;;;;;1.73;1.35;;;12.00;99.90;;;;;;5024976;28;20125;-77
2021/12/30 11:33:03;;;;;;;3.17;1.88;;;12.00;99.90;;;;;;5025402;28;20471;-78
2021/12/30 11:35:29;;;;;;;3.10;1.33;;;12.00;99.90;;;;;;5025177;28;20040;-76
2021/12/30 11:37:56;;;;;;;11.15;2.40;;;12.00;99.90;;;;;;5047524;28;20053;-77
2021/12/30 11:40:25;;;;;;;3.15;2.10;;;12.00;99.90;;;;;;5046723;28;20029;-76
2021/12/30 11:42:53;;;;;;;4.70;2.00;;;12.00;99.90;;;;;;5064357;28;20088;-75
2021/12/30 11:45:38;;;;;;;4.63;1.98;;;12.00;99.90;;;;;;5065180;28;20512;-77
2021/12/30 11:48:20;;;;;;;2.05;1.17;;;12.10;99.90;;;;;;5046948;28;20025;-74
2021/12/30 11:50:46;;;;;;;2.58;1.48;;;12.10;99.90;;;;;;5064826;28;20106;-76
2021/12/30 11:53:12;;;;;;;3.72;1.50;;;12.10;99.90;;;;;;5064832;28;20021;-75
2021/12/30 11:56:03;;;;;;;2.13;1.17;;;12.20;99.90;;;;;;5064818;28;20020;-76
2021/12/30 11:58:29;;;;;;;1.20;0.93;;;12.10;99.90;;;;;;5046818;28;20037;-75
2021/12/30 12:00:56;;;;;;;2.50;0.90;;;12.10;99.90;;;;;;5047044;28;20028;-75
2021/12/30 12:03:31;;;;;;;3.53;1.35;;;12.10;99.90;;;;;;5046284;28;20029;-79
2021/12/30 12:05:57;;;;;;;2.30;1.23;;;12.10;99.90;;;;;;5064860;28;20063;-78
2021/12/30 12:08:28;;;;;;;6.43;1.20;;;12.20;99.90;;;;;;5064478;28;20052;-78
2021/12/30 12:11:16;;;;;;;3.03;1.73;;;12.20;99.90;;;;;;5045851;28;20105;-76
2021/12/30 12:13:44;;;;;;;3.78;1.50;;;12.20;99.90;;;;;;5064785;28;20021;-77
2021/12/30 12:16:13;;;;;;;6.80;1.77;;;12.20;99.90;;;;;;5045965;28;20690;-76
2021/12/30 12:18:58;;;;;;;8.75;3.70;;;12.20;99.90;;;;;;5064255;28;20041;-75
2021/12/30 12:21:44;;;;;;;3.53;1.95;;;12.20;99.90;;;;;;5063963;28;20045;-75
2021/12/30 12:24:21;;;;;;;5.50;2.30;;;12.20;99.90;;;;;;5064421;28;20112;-75
2021/12/30 12:26:47;;;;;;;3.63;2.05;;;12.20;99.90;;;;;;5062408;28;20037;-74
2021/12/30 12:29:33;;;;;;;7.45;2.00;;;12.20;99.90;;;;;;5041829;28;20028;-76
2021/12/30 12:32:32;;;;;;;3.67;2.03;;;12.30;99.90;;;;;;5063886;28;20044;-77
2021/12/30 12:35:00;;;;;;;5.13;2.10;;;12.30;99.90;;;;;;5058041;28;20091;-78
2021/12/30 12:37:48;;;;;;;2.92;1.30;;;12.30;99.90;;;;;;5049696;28;20102;-76
2021/12/30 12:40:24;;;;;;;3.35;1.55;;;12.40;99.90;;;;;;5063767;28;20393;-76
2021/12/30 12:42:52;;;;;;;6.72;1.60;;;12.30;99.90;;;;;;5063529;28;20055;-76
2021/12/30 12:45:27;;;;;;;3.58;1.42;;;12.30;99.90;;;;;;5065350;28;20491;-76
2021/12/30 12:48:17;;;;;;;4.10;1.40;;;12.30;99.90;;;;;;5064090;28;20028;-74
2021/12/30 12:50:52;;;;;;;2.30;1.48;;;12.30;99.90;;;;;;5065225;28;20033;-74